createdAt,value
2023-05-05T00:01:18.570Z,61.30
2023-05-05T00:03:47.964Z,61.30
2023-05-05T00:06:17.308Z,61.20
2023-05-05T00:08:47.943Z,60.80
2023-05-05T00:11:17.024Z,61.30
2023-05-05T00:13:46.525Z,61.60
2023-05-05T00:16:15.824Z,61.30
2023-05-05T00:18:45.240Z,63.40
2023-05-05T00:21:16.071Z,64.90
2023-05-05T00:23:44.954Z,65.40
2023-05-05T00:26:16.822Z,65.20
2023-05-05T00:28:47.250Z,66.20
2023-05-05T00:31:16.308Z,66.60
2023-05-05T00:33:45.546Z,66.80
2023-05-05T00:36:14.854Z,67.60
2023-05-05T00:38:44.236Z,67.70
2023-05-05T00:41:13.561Z,67.20
2023-05-05T00:43:42.856Z,67.60
2023-05-05T00:46:12.650Z,67.20
2023-05-05T00:48:41.863Z,63.60
2023-05-05T00:51:11.162Z,64.30
2023-05-05T00:53:40.366Z,64.50
2023-05-05T00:56:09.461Z,65.00
2023-05-05T00:58:38.646Z,65.20
2023-05-05T01:01:07.728Z,65.40
2023-05-05T01:03:37.046Z,65.40
2023-05-05T01:06:06.347Z,65.10
2023-05-05T01:08:35.753Z,65.30
2023-05-05T01:11:04.844Z,65.00
2023-05-05T01:13:33.942Z,65.00
2023-05-05T01:16:02.973Z,65.20
2023-05-05T01:18:32.251Z,65.20
2023-05-05T01:21:01.232Z,65.00
2023-05-05T01:23:30.113Z,65.20
2023-05-05T01:25:59.025Z,64.70
2023-05-05T01:28:27.909Z,64.90
2023-05-05T01:30:58.330Z,65.10
2023-05-05T01:33:27.320Z,64.80
2023-05-05T01:35:56.743Z,64.80
2023-05-05T01:38:25.610Z,65.50
2023-05-05T01:40:54.499Z,64.50
2023-05-05T01:43:23.421Z,64.80
2023-05-05T01:45:52.427Z,64.50
2023-05-05T01:48:22.831Z,64.40
2023-05-05T01:50:52.116Z,64.40
2023-05-05T01:53:21.005Z,64.50
2023-05-05T01:55:49.894Z,64.60
2023-05-05T01:58:18.894Z,64.50
2023-05-05T02:00:47.885Z,64.40
2023-05-05T02:03:16.997Z,64.40
2023-05-05T02:05:46.173Z,64.50
2023-05-05T02:08:15.069Z,64.20
2023-05-05T02:10:43.962Z,64.00
2023-05-05T02:13:13.800Z,64.00
2023-05-05T02:15:42.814Z,63.90
2023-05-05T02:18:11.774Z,63.60
2023-05-05T02:20:40.765Z,63.50
2023-05-05T02:23:09.849Z,63.50
2023-05-05T02:25:38.738Z,63.60
2023-05-05T02:28:07.666Z,63.60
2023-05-05T02:30:36.427Z,63.50
2023-05-05T02:33:05.550Z,63.40
2023-05-05T02:35:34.517Z,64.20
2023-05-05T02:38:04.012Z,63.50
2023-05-05T02:40:34.337Z,63.40
2023-05-05T02:43:03.623Z,63.10
2023-05-05T02:45:32.533Z,63.30
2023-05-05T02:48:01.681Z,63.40
2023-05-05T02:50:31.342Z,63.00
2023-05-05T02:53:01.761Z,63.20
2023-05-05T02:55:31.162Z,63.10
2023-05-05T02:58:00.071Z,62.70
2023-05-05T03:00:30.083Z,62.50
2023-05-05T03:02:59.159Z,62.60
2023-05-05T03:05:29.090Z,62.60
2023-05-05T03:07:57.978Z,62.50
2023-05-05T03:10:28.302Z,62.60
2023-05-05T03:12:58.842Z,62.30
2023-05-05T03:15:32.432Z,62.20
